sensor_id;sensor_type;location;lat;lon;timestamp;temperature;humidity
42227;DHT22;27892;52.378;13.122;2023-07-22T00:01:01;17.50;70.40
42227;DHT22;27892;52.378;13.122;2023-07-22T00:03:27;17.60;70.60
42227;DHT22;27892;52.378;13.122;2023-07-22T00:06:04;17.70;71.40
42227;DHT22;27892;52.378;13.122;2023-07-22T00:08:31;17.70;70.90
42227;DHT22;27892;52.378;13.122;2023-07-22T00:10:56;17.70;70.70
42227;DHT22;27892;52.378;13.122;2023-07-22T00:13:22;17.80;70.50
42227;DHT22;27892;52.378;13.122;2023-07-22T00:15:48;17.90;71.10
42227;DHT22;27892;52.378;13.122;2023-07-22T00:18:13;17.80;70.80
42227;DHT22;27892;52.378;13.122;2023-07-22T00:20:39;17.90;71.30
42227;DHT22;27892;52.378;13.122;2023-07-22T00:23:05;17.90;71.00
42227;DHT22;27892;52.378;13.122;2023-07-22T00:25:30;18.00;71.60
42227;DHT22;27892;52.378;13.122;2023-07-22T00:27:56;18.10;71.50
42227;DHT22;27892;52.378;13.122;2023-07-22T00:30:22;18.10;71.00
42227;DHT22;27892;52.378;13.122;2023-07-22T00:32:48;18.10;71.20
42227;DHT22;27892;52.378;13.122;2023-07-22T00:35:13;18.20;71.20
42227;DHT22;27892;52.378;13.122;2023-07-22T00:37:39;18.20;71.10
42227;DHT22;27892;52.378;13.122;2023-07-22T00:40:05;18.20;71.30
42227;DHT22;27892;52.378;13.122;2023-07-22T00:42:37;18.20;71.70
42227;DHT22;27892;52.378;13.122;2023-07-22T00:45:03;18.40;71.90
42227;DHT22;27892;52.378;13.122;2023-07-22T00:47:29;18.40;71.50
42227;DHT22;27892;52.378;13.122;2023-07-22T00:49:54;18.50;71.60
42227;DHT22;27892;52.378;13.122;2023-07-22T00:52:21;18.60;71.80
42227;DHT22;27892;52.378;13.122;2023-07-22T00:54:47;18.60;71.60
42227;DHT22;27892;52.378;13.122;2023-07-22T00:57:12;18.70;71.80
42227;DHT22;27892;52.378;13.122;2023-07-22T00:59:39;18.80;71.80
42227;DHT22;27892;52.378;13.122;2023-07-22T01:02:06;18.80;71.50
42227;DHT22;27892;52.378;13.122;2023-07-22T01:04:33;18.90;71.70
42227;DHT22;27892;52.378;13.122;2023-07-22T01:07:00;19.00;71.60
42227;DHT22;27892;52.378;13.122;2023-07-22T01:09:35;19.00;71.40
42227;DHT22;27892;52.378;13.122;2023-07-22T01:12:00;19.00;71.80
42227;DHT22;27892;52.378;13.122;2023-07-22T01:14:26;19.00;70.70
42227;DHT22;27892;52.378;13.122;2023-07-22T01:16:52;19.10;71.10
42227;DHT22;27892;52.378;13.122;2023-07-22T01:19:18;19.10;71.00
42227;DHT22;27892;52.378;13.122;2023-07-22T01:21:46;19.10;70.80
42227;DHT22;27892;52.378;13.122;2023-07-22T01:24:12;19.20;70.80
42227;DHT22;27892;52.378;13.122;2023-07-22T01:26:38;19.20;70.70
42227;DHT22;27892;52.378;13.122;2023-07-22T01:29:05;19.20;70.60
42227;DHT22;27892;52.378;13.122;2023-07-22T01:31:33;19.20;70.40
42227;DHT22;27892;52.378;13.122;2023-07-22T01:34:00;19.20;70.30
42227;DHT22;27892;52.378;13.122;2023-07-22T01:36:25;19.20;70.20
42227;DHT22;27892;52.378;13.122;2023-07-22T01:38:51;19.20;70.20
42227;DHT22;27892;52.378;13.122;2023-07-22T01:41:16;19.20;70.30
42227;DHT22;27892;52.378;13.122;2023-07-22T01:43:42;19.20;70.30
42227;DHT22;27892;52.378;13.122;2023-07-22T01:46:08;19.20;70.20
42227;DHT22;27892;52.378;13.122;2023-07-22T01:48:33;19.10;70.10
42227;DHT22;27892;52.378;13.122;2023-07-22T01:50:59;19.10;70.00
42227;DHT22;27892;52.378;13.122;2023-07-22T01:53:28;19.10;70.20
42227;DHT22;27892;52.378;13.122;2023-07-22T01:55:53;19.10;70.10
42227;DHT22;27892;52.378;13.122;2023-07-22T01:58:20;19.00;69.80
42227;DHT22;27892;52.378;13.122;2023-07-22T02:00:50;18.90;70.00
42227;DHT22;27892;52.378;13.122;2023-07-22T02:03:15;18.90;70.10
42227;DHT22;27892;52.378;13.122;2023-07-22T02:05:41;18.90;70.20
42227;DHT22;27892;52.378;13.122;2023-07-22T02:08:07;18.90;70.00
42227;DHT22;27892;52.378;13.122;2023-07-22T02:10:32;18.80;70.00
42227;DHT22;27892;52.378;13.122;2023-07-22T02:12:58;18.70;70.00
42227;DHT22;27892;52.378;13.122;2023-07-22T02:15:24;18.70;70.60
42227;DHT22;27892;52.378;13.122;2023-07-22T02:17:50;18.70;70.60
42227;DHT22;27892;52.378;13.122;2023-07-22T02:20:15;18.60;70.50
42227;DHT22;27892;52.378;13.122;2023-07-22T02:22:43;18.60;70.40
42227;DHT22;27892;52.378;13.122;2023-07-22T02:25:09;18.50;70.50
42227;DHT22;27892;52.378;13.122;2023-07-22T02:27:36;18.50;70.60
42227;DHT22;27892;52.378;13.122;2023-07-22T02:30:02;18.50;70.60
42227;DHT22;27892;52.378;13.122;2023-07-22T02:32:29;18.50;70.90
42227;DHT22;27892;52.378;13.122;2023-07-22T02:34:55;18.50;70.90
42227;DHT22;27892;52.378;13.122;2023-07-22T02:37:21;18.40;71.00
42227;DHT22;27892;52.378;13.122;2023-07-22T02:39:46;18.40;71.10
42227;DHT22;27892;52.378;13.122;2023-07-22T02:42:12;18.50;71.50
42227;DHT22;27892;52.378;13.122;2023-07-22T02:44:38;18.50;71.30
42227;DHT22;27892;52.378;13.122;2023-07-22T02:47:03;18.50;71.00
42227;DHT22;27892;52.378;13.122;2023-07-22T02:49:29;18.50;70.40
42227;DHT22;27892;52.378;13.122;2023-07-22T02:51:55;18.40;70.20
42227;DHT22;27892;52.378;13.122;2023-07-22T02:54:21;18.40;70.30
42227;DHT22;27892;52.378;13.122;2023-07-22T02:56:47;18.40;70.20
42227;DHT22;27892;52.378;13.122;2023-07-22T02:59:12;18.40;70.20
42227;DHT22;27892;52.378;13.122;2023-07-22T03:01:38;18.40;70.10
42227;DHT22;27892;52.378;13.122;2023-07-22T03:04:04;18.40;70.00
42227;DHT22;27892;52.378;13.122;2023-07-22T03:06:30;18.30;69.70
42227;DHT22;27892;52.378;13.122;2023-07-22T03:08:56;18.30;69.40
42227;DHT22;27892;52.378;13.122;2023-07-22T03:11:23;18.20;69.40
42227;DHT22;27892;52.378;13.122;2023-07-22T03:13:51;18.20;69.50
42227;DHT22;27892;52.378;13.122;2023-07-22T03:16:16;18.20;69.50
42227;DHT22;27892;52.378;13.122;2023-07-22T03:18:42;18.20;69.20
42227;DHT22;27892;52.378;13.122;2023-07-22T03:21:09;18.20;69.20
42227;DHT22;27892;52.378;13.122;2023-07-22T03:23:34;18.20;68.80
42227;DHT22;27892;52.378;13.122;2023-07-22T03:26:00;18.10;68.80
42227;DHT22;27892;52.378;13.122;2023-07-22T03:28:26;18.10;68.90
42227;DHT22;27892;52.378;13.122;2023-07-22T03:30:52;18.10;68.90
42227;DHT22;27892;52.378;13.122;2023-07-22T03:33:18;18.20;69.00
42227;DHT22;27892;52.378;13.122;2023-07-22T03:35:44;18.20;68.70
42227;DHT22;27892;52.378;13.122;2023-07-22T03:38:10;18.20;68.60
42227;DHT22;27892;52.378;13.122;2023-07-22T03:40:35;18.20;68.60
42227;DHT22;27892;52.378;13.122;2023-07-22T03:43:03;18.10;69.20
42227;DHT22;27892;52.378;13.122;2023-07-22T03:45:29;18.10;69.00
42227;DHT22;27892;52.378;13.122;2023-07-22T03:47:59;18.10;68.90
42227;DHT22;27892;52.378;13.122;2023-07-22T03:50:26;18.10;69.20
42227;DHT22;27892;52.378;13.122;2023-07-22T03:52:51;18.10;69.30
42227;DHT22;27892;52.378;13.122;2023-07-22T03:55:17;18.10;69.00
42227;DHT22;27892;52.378;13.122;2023-07-22T03:57:45;18.10;69.10
42227;DHT22;27892;52.378;13.122;2023-07-22T04:00:11;18.10;68.90
42227;DHT22;27892;52.378;13.122;2023-07-22T04:02:36;18.10;69.00
42227;DHT22;27892;52.378;13.122;2023-07-22T04:05:03;18.10;69.30
42227;DHT22;27892;52.378;13.122;2023-07-22T04:07:28;18.10;69.10
42227;DHT22;27892;52.378;13.122;2023-07-22T04:09:54;18.20;69.20
42227;DHT22;27892;52.378;13.122;2023-07-22T04:12:20;18.20;69.10
42227;DHT22;27892;52.378;13.122;2023-07-22T04:14:45;18.20;68.80
42227;DHT22;27892;52.378;13.122;2023-07-22T04:17:11;18.30;68.90
42227;DHT22;27892;52.378;13.122;2023-07-22T04:19:37;18.30;68.80
42227;DHT22;27892;52.378;13.122;2023-07-22T04:22:02;18.30;68.50
42227;DHT22;27892;52.378;13.122;2023-07-22T04:24:32;18.40;68.60
42227;DHT22;27892;52.378;13.122;2023-07-22T04:26:59;18.40;68.50
42227;DHT22;27892;52.378;13.122;2023-07-22T04:29:24;18.50;68.40
42227;DHT22;27892;52.378;13.122;2023-07-22T04:31:50;18.50;68.40
42227;DHT22;27892;52.378;13.122;2023-07-22T04:34:16;18.60;68.30
42227;DHT22;27892;52.378;13.122;2023-07-22T04:36:41;18.60;68.00
42227;DHT22;27892;52.378;13.122;2023-07-22T04:39:08;18.70;68.20
42227;DHT22;27892;52.378;13.122;2023-07-22T04:41:33;18.70;67.90
42227;DHT22;27892;52.378;13.122;2023-07-22T04:43:59;18.80;67.60
42227;DHT22;27892;52.378;13.122;2023-07-22T04:46:25;18.90;67.20
42227;DHT22;27892;52.378;13.122;2023-07-22T04:48:54;19.00;67.00
42227;DHT22;27892;52.378;13.122;2023-07-22T04:51:20;19.00;66.50
42227;DHT22;27892;52.378;13.122;2023-07-22T04:53:45;19.10;66.30
42227;DHT22;27892;52.378;13.122;2023-07-22T04:56:11;19.10;66.40
42227;DHT22;27892;52.378;13.122;2023-07-22T04:58:36;19.10;66.00
42227;DHT22;27892;52.378;13.122;2023-07-22T05:01:02;19.10;65.50
42227;DHT22;27892;52.378;13.122;2023-07-22T05:03:28;19.10;65.30
42227;DHT22;27892;52.378;13.122;2023-07-22T05:05:53;19.10;65.30
42227;DHT22;27892;52.378;13.122;2023-07-22T05:08:19;19.20;65.40
42227;DHT22;27892;52.378;13.122;2023-07-22T05:10:45;19.40;65.10
42227;DHT22;27892;52.378;13.122;2023-07-22T05:13:11;19.40;64.90
42227;DHT22;27892;52.378;13.122;2023-07-22T05:15:37;19.50;64.50
42227;DHT22;27892;52.378;13.122;2023-07-22T05:18:03;19.50;64.40
42227;DHT22;27892;52.378;13.122;2023-07-22T05:20:28;19.70;64.50
42227;DHT22;27892;52.378;13.122;2023-07-22T05:22:55;19.80;63.90
42227;DHT22;27892;52.378;13.122;2023-07-22T05:25:20;19.90;63.10
42227;DHT22;27892;52.378;13.122;2023-07-22T05:27:46;19.90;62.70
42227;DHT22;27892;52.378;13.122;2023-07-22T05:30:12;20.00;63.10
42227;DHT22;27892;52.378;13.122;2023-07-22T05:32:37;20.00;62.70
42227;DHT22;27892;52.378;13.122;2023-07-22T05:35:03;20.10;61.70
42227;DHT22;27892;52.378;13.122;2023-07-22T05:37:30;20.10;61.90
42227;DHT22;27892;52.378;13.122;2023-07-22T05:39:56;20.10;62.30
42227;DHT22;27892;52.378;13.122;2023-07-22T05:42:22;20.20;61.60
42227;DHT22;27892;52.378;13.122;2023-07-22T05:44:48;20.30;61.60
42227;DHT22;27892;52.378;13.122;2023-07-22T05:47:14;20.40;61.10
42227;DHT22;27892;52.378;13.122;2023-07-22T05:49:40;20.40;60.90
42227;DHT22;27892;52.378;13.122;2023-07-22T05:52:06;20.60;61.10
42227;DHT22;27892;52.378;13.122;2023-07-22T05:54:32;20.70;60.60
42227;DHT22;27892;52.378;13.122;2023-07-22T05:56:57;20.80;59.80
42227;DHT22;27892;52.378;13.122;2023-07-22T05:59:23;20.90;59.70
42227;DHT22;27892;52.378;13.122;2023-07-22T06:01:49;21.10;59.30
42227;DHT22;27892;52.378;13.122;2023-07-22T06:04:14;21.40;59.20
42227;DHT22;27892;52.378;13.122;2023-07-22T06:06:40;21.80;57.30
42227;DHT22;27892;52.378;13.122;2023-07-22T06:09:06;23.00;56.80
42227;DHT22;27892;52.378;13.122;2023-07-22T06:11:31;24.60;53.10
42227;DHT22;27892;52.378;13.122;2023-07-22T06:13:57;26.30;50.50
42227;DHT22;27892;52.378;13.122;2023-07-22T06:16:23;27.70;47.50
42227;DHT22;27892;52.378;13.122;2023-07-22T06:18:48;28.60;45.80
42227;DHT22;27892;52.378;13.122;2023-07-22T06:21:14;29.70;42.90
42227;DHT22;27892;52.378;13.122;2023-07-22T06:23:41;29.90;41.60
42227;DHT22;27892;52.378;13.122;2023-07-22T06:26:07;29.80;39.90
42227;DHT22;27892;52.378;13.122;2023-07-22T06:28:32;29.60;41.50
42227;DHT22;27892;52.378;13.122;2023-07-22T06:30:58;29.40;40.60
42227;DHT22;27892;52.378;13.122;2023-07-22T06:33:24;29.30;41.30
42227;DHT22;27892;52.378;13.122;2023-07-22T06:35:49;30.60;40.50
42227;DHT22;27892;52.378;13.122;2023-07-22T06:38:15;32.10;38.80
42227;DHT22;27892;52.378;13.122;2023-07-22T06:40:40;33.50;36.70
42227;DHT22;27892;52.378;13.122;2023-07-22T06:43:06;34.40;34.00
42227;DHT22;27892;52.378;13.122;2023-07-22T06:45:32;34.80;31.30
42227;DHT22;27892;52.378;13.122;2023-07-22T06:47:58;34.70;32.20
42227;DHT22;27892;52.378;13.122;2023-07-22T06:50:24;35.30;30.90
42227;DHT22;27892;52.378;13.122;2023-07-22T06:52:50;35.70;30.10
42227;DHT22;27892;52.378;13.122;2023-07-22T06:55:16;36.00;29.90
42227;DHT22;27892;52.378;13.122;2023-07-22T06:57:41;36.40;29.10
42227;DHT22;27892;52.378;13.122;2023-07-22T07:00:08;36.40;28.50
42227;DHT22;27892;52.378;13.122;2023-07-22T07:02:35;35.40;28.20
42227;DHT22;27892;52.378;13.122;2023-07-22T07:05:02;34.30;29.60
42227;DHT22;27892;52.378;13.122;2023-07-22T07:07:27;33.70;30.70
42227;DHT22;27892;52.378;13.122;2023-07-22T07:09:53;34.10;30.50
42227;DHT22;27892;52.378;13.122;2023-07-22T07:12:19;34.90;29.80
42227;DHT22;27892;52.378;13.122;2023-07-22T07:14:45;35.60;29.50
42227;DHT22;27892;52.378;13.122;2023-07-22T07:17:11;35.60;28.50
42227;DHT22;27892;52.378;13.122;2023-07-22T07:19:36;34.40;28.50
42227;DHT22;27892;52.378;13.122;2023-07-22T07:22:02;33.70;29.70
42227;DHT22;27892;52.378;13.122;2023-07-22T07:24:28;34.50;30.00
42227;DHT22;27892;52.378;13.122;2023-07-22T07:26:54;35.00;29.10
42227;DHT22;27892;52.378;13.122;2023-07-22T07:29:19;34.90;28.70
42227;DHT22;27892;52.378;13.122;2023-07-22T07:31:45;34.80;28.80
42227;DHT22;27892;52.378;13.122;2023-07-22T07:34:10;35.10;28.70
42227;DHT22;27892;52.378;13.122;2023-07-22T07:36:36;35.70;27.70
42227;DHT22;27892;52.378;13.122;2023-07-22T07:39:02;34.70;28.10
42227;DHT22;27892;52.378;13.122;2023-07-22T07:41:29;33.60;28.20
42227;DHT22;27892;52.378;13.122;2023-07-22T07:43:54;32.70;30.20
42227;DHT22;27892;52.378;13.122;2023-07-22T07:46:26;33.90;29.90
42227;DHT22;27892;52.378;13.122;2023-07-22T07:48:54;34.70;28.30
42227;DHT22;27892;52.378;13.122;2023-07-22T07:51:21;34.40;27.90
42227;DHT22;27892;52.378;13.122;2023-07-22T07:53:48;34.10;28.70
42227;DHT22;27892;52.378;13.122;2023-07-22T07:56:14;34.30;28.20
42227;DHT22;27892;52.378;13.122;2023-07-22T07:58:40;34.70;28.10
42227;DHT22;27892;52.378;13.122;2023-07-22T08:01:06;33.80;28.70
42227;DHT22;27892;52.378;13.122;2023-07-22T08:03:33;33.70;29.30
42227;DHT22;27892;52.378;13.122;2023-07-22T08:05:59;33.70;28.90
42227;DHT22;27892;52.378;13.122;2023-07-22T08:08:24;34.00;28.60
42227;DHT22;27892;52.378;13.122;2023-07-22T08:11:02;34.10;27.80
42227;DHT22;27892;52.378;13.122;2023-07-22T08:13:28;32.50;29.00
42227;DHT22;27892;52.378;13.122;2023-07-22T08:15:58;30.80;30.80
42227;DHT22;27892;52.378;13.122;2023-07-22T08:18:24;29.00;31.50
42227;DHT22;27892;52.378;13.122;2023-07-22T08:20:54;28.00;33.60
42227;DHT22;27892;52.378;13.122;2023-07-22T08:23:20;27.40;35.80
42227;DHT22;27892;52.378;13.122;2023-07-22T08:25:46;27.10;37.20
42227;DHT22;27892;52.378;13.122;2023-07-22T08:28:12;26.90;36.50
42227;DHT22;27892;52.378;13.122;2023-07-22T08:30:38;26.70;37.50
42227;DHT22;27892;52.378;13.122;2023-07-22T08:33:09;26.40;37.10
42227;DHT22;27892;52.378;13.122;2023-07-22T08:35:35;26.30;37.90
42227;DHT22;27892;52.378;13.122;2023-07-22T08:38:02;26.20;38.40
42227;DHT22;27892;52.378;13.122;2023-07-22T08:40:39;26.20;38.60
42227;DHT22;27892;52.378;13.122;2023-07-22T08:43:07;26.50;39.00
42227;DHT22;27892;52.378;13.122;2023-07-22T08:45:34;26.70;38.90
42227;DHT22;27892;52.378;13.122;2023-07-22T08:48:06;26.90;38.20
42227;DHT22;27892;52.378;13.122;2023-07-22T08:50:46;26.90;37.10
42227;DHT22;27892;52.378;13.122;2023-07-22T08:53:15;26.80;37.60
42227;DHT22;27892;52.378;13.122;2023-07-22T08:55:41;26.50;38.10
42227;DHT22;27892;52.378;13.122;2023-07-22T08:58:11;26.20;37.70
42227;DHT22;27892;52.378;13.122;2023-07-22T09:00:38;26.10;38.60
42227;DHT22;27892;52.378;13.122;2023-07-22T09:03:04;26.20;39.60
42227;DHT22;27892;52.378;13.122;2023-07-22T09:05:32;26.50;39.00
42227;DHT22;27892;52.378;13.122;2023-07-22T09:07:59;26.90;37.90
42227;DHT22;27892;52.378;13.122;2023-07-22T09:10:27;27.20;37.10
42227;DHT22;27892;52.378;13.122;2023-07-22T09:12:53;27.50;36.90
42227;DHT22;27892;52.378;13.122;2023-07-22T09:15:19;27.40;36.90
42227;DHT22;27892;52.378;13.122;2023-07-22T09:17:46;27.50;37.60
42227;DHT22;27892;52.378;13.122;2023-07-22T09:20:13;27.40;37.00
42227;DHT22;27892;52.378;13.122;2023-07-22T09:22:49;27.00;36.80
42227;DHT22;27892;52.378;13.122;2023-07-22T09:25:19;27.00;37.20
42227;DHT22;27892;52.378;13.122;2023-07-22T09:27:50;27.30;38.40
42227;DHT22;27892;52.378;13.122;2023-07-22T09:30:33;27.80;37.80
42227;DHT22;27892;52.378;13.122;2023-07-22T09:33:02;28.20;36.80
42227;DHT22;27892;52.378;13.122;2023-07-22T09:35:30;28.60;36.60
42227;DHT22;27892;52.378;13.122;2023-07-22T09:37:56;28.90;35.50
42227;DHT22;27892;52.378;13.122;2023-07-22T09:40:24;29.10;35.20
42227;DHT22;27892;52.378;13.122;2023-07-22T09:42:51;29.10;34.20
42227;DHT22;27892;52.378;13.122;2023-07-22T09:45:18;29.10;34.90
42227;DHT22;27892;52.378;13.122;2023-07-22T09:47:48;29.30;34.10
42227;DHT22;27892;52.378;13.122;2023-07-22T09:50:20;29.10;33.20
42227;DHT22;27892;52.378;13.122;2023-07-22T09:52:54;28.70;33.70
42227;DHT22;27892;52.378;13.122;2023-07-22T09:55:22;28.60;35.00
42227;DHT22;27892;52.378;13.122;2023-07-22T09:58:06;28.80;34.30
42227;DHT22;27892;52.378;13.122;2023-07-22T10:00:35;28.40;33.90
42227;DHT22;27892;52.378;13.122;2023-07-22T10:03:02;28.00;33.70
42227;DHT22;27892;52.378;13.122;2023-07-22T10:05:30;28.00;34.60
42227;DHT22;27892;52.378;13.122;2023-07-22T10:07:58;28.10;34.90
42227;DHT22;27892;52.378;13.122;2023-07-22T10:10:35;28.20;33.80
42227;DHT22;27892;52.378;13.122;2023-07-22T10:13:02;28.20;34.50
42227;DHT22;27892;52.378;13.122;2023-07-22T10:15:30;28.50;34.20
42227;DHT22;27892;52.378;13.122;2023-07-22T10:17:56;28.70;34.20
42227;DHT22;27892;52.378;13.122;2023-07-22T10:20:23;28.80;34.30
42227;DHT22;27892;52.378;13.122;2023-07-22T10:22:50;29.10;34.50
42227;DHT22;27892;52.378;13.122;2023-07-22T10:25:20;29.10;33.00
42227;DHT22;27892;52.378;13.122;2023-07-22T10:27:47;29.40;33.10
42227;DHT22;27892;52.378;13.122;2023-07-22T10:30:15;29.50;32.80
42227;DHT22;27892;52.378;13.122;2023-07-22T10:32:45;29.20;33.50
42227;DHT22;27892;52.378;13.122;2023-07-22T10:35:13;29.20;33.90
42227;DHT22;27892;52.378;13.122;2023-07-22T10:37:44;29.20;33.60
42227;DHT22;27892;52.378;13.122;2023-07-22T10:40:27;28.90;33.40
42227;DHT22;27892;52.378;13.122;2023-07-22T10:48:22;29.10;34.20
42227;DHT22;27892;52.378;13.122;2023-07-22T10:50:49;29.70;33.20
42227;DHT22;27892;52.378;13.122;2023-07-22T10:56:07;30.30;30.60
42227;DHT22;27892;52.378;13.122;2023-07-22T11:11:54;29.00;30.90
42227;DHT22;27892;52.378;13.122;2023-07-22T11:14:23;28.80;31.80
42227;DHT22;27892;52.378;13.122;2023-07-22T11:16:50;29.10;32.50
42227;DHT22;27892;52.378;13.122;2023-07-22T11:19:18;29.60;32.60
42227;DHT22;27892;52.378;13.122;2023-07-22T11:21:45;29.80;31.10
42227;DHT22;27892;52.378;13.122;2023-07-22T11:24:11;29.90;32.30
42227;DHT22;27892;52.378;13.122;2023-07-22T11:26:37;30.10;31.20
42227;DHT22;27892;52.378;13.122;2023-07-22T11:29:04;30.10;30.10
42227;DHT22;27892;52.378;13.122;2023-07-22T11:31:35;30.10;30.90
42227;DHT22;27892;52.378;13.122;2023-07-22T11:34:03;30.20;31.20
42227;DHT22;27892;52.378;13.122;2023-07-22T11:36:29;30.20;30.00
42227;DHT22;27892;52.378;13.122;2023-07-22T11:39:02;30.30;30.20
42227;DHT22;27892;52.378;13.122;2023-07-22T11:41:29;30.60;30.80
42227;DHT22;27892;52.378;13.122;2023-07-22T11:43:57;30.80;30.40
42227;DHT22;27892;52.378;13.122;2023-07-22T11:46:23;30.80;29.30
42227;DHT22;27892;52.378;13.122;2023-07-22T11:48:53;30.60;29.80
42227;DHT22;27892;52.378;13.122;2023-07-22T11:51:21;30.40;30.00
42227;DHT22;27892;52.378;13.122;2023-07-22T11:53:51;30.50;30.00
42227;DHT22;27892;52.378;13.122;2023-07-22T11:56:27;30.70;30.00
42227;DHT22;27892;52.378;13.122;2023-07-22T11:58:57;30.60;29.00
42227;DHT22;27892;52.378;13.122;2023-07-22T12:01:23;30.30;28.90
42227;DHT22;27892;52.378;13.122;2023-07-22T12:03:54;30.10;29.30
42227;DHT22;27892;52.378;13.122;2023-07-22T12:06:20;30.50;29.80
42227;DHT22;27892;52.378;13.122;2023-07-22T12:08:52;30.80;29.70
42227;DHT22;27892;52.378;13.122;2023-07-22T12:13:43;30.80;29.20
42227;DHT22;27892;52.378;13.122;2023-07-22T12:16:23;31.00;29.90
42227;DHT22;27892;52.378;13.122;2023-07-22T12:18:49;31.10;28.40
42227;DHT22;27892;52.378;13.122;2023-07-22T12:21:15;31.10;29.30
42227;DHT22;27892;52.378;13.122;2023-07-22T12:23:41;31.00;29.10
42227;DHT22;27892;52.378;13.122;2023-07-22T12:26:08;30.60;28.90
42227;DHT22;27892;52.378;13.122;2023-07-22T12:28:34;30.20;28.90
42227;DHT22;27892;52.378;13.122;2023-07-22T12:31:00;29.90;30.00
42227;DHT22;27892;52.378;13.122;2023-07-22T12:33:26;30.00;30.20
42227;DHT22;27892;52.378;13.122;2023-07-22T12:35:56;29.90;29.70
42227;DHT22;27892;52.378;13.122;2023-07-22T12:38:22;29.90;30.00
42227;DHT22;27892;52.378;13.122;2023-07-22T12:40:48;29.90;30.20
42227;DHT22;27892;52.378;13.122;2023-07-22T12:43:13;29.80;30.00
42227;DHT22;27892;52.378;13.122;2023-07-22T12:45:39;29.70;30.10
42227;DHT22;27892;52.378;13.122;2023-07-22T12:48:05;29.40;30.20
42227;DHT22;27892;52.378;13.122;2023-07-22T12:50:31;29.20;31.30
42227;DHT22;27892;52.378;13.122;2023-07-22T12:52:58;29.10;31.30
42227;DHT22;27892;52.378;13.122;2023-07-22T12:55:23;28.90;30.80
42227;DHT22;27892;52.378;13.122;2023-07-22T12:57:50;28.70;30.80
42227;DHT22;27892;52.378;13.122;2023-07-22T13:00:15;28.50;32.70
42227;DHT22;27892;52.378;13.122;2023-07-22T13:02:41;28.40;32.90
42227;DHT22;27892;52.378;13.122;2023-07-22T13:05:07;28.50;33.10
42227;DHT22;27892;52.378;13.122;2023-07-22T13:07:32;28.40;32.80
42227;DHT22;27892;52.378;13.122;2023-07-22T13:09:58;28.50;33.30
42227;DHT22;27892;52.378;13.122;2023-07-22T13:12:27;28.70;33.20
42227;DHT22;27892;52.378;13.122;2023-07-22T13:14:53;29.00;32.30
42227;DHT22;27892;52.378;13.122;2023-07-22T13:17:19;28.80;31.60
42227;DHT22;27892;52.378;13.122;2023-07-22T13:19:44;28.70;32.00
42227;DHT22;27892;52.378;13.122;2023-07-22T13:22:10;28.50;32.30
42227;DHT22;27892;52.378;13.122;2023-07-22T13:24:35;28.40;32.80
42227;DHT22;27892;52.378;13.122;2023-07-22T13:27:01;28.10;32.40
42227;DHT22;27892;52.378;13.122;2023-07-22T13:29:27;27.90;32.70
42227;DHT22;27892;52.378;13.122;2023-07-22T13:31:53;27.80;33.40
42227;DHT22;27892;52.378;13.122;2023-07-22T13:34:19;27.80;34.30
42227;DHT22;27892;52.378;13.122;2023-07-22T13:36:45;28.40;35.20
42227;DHT22;27892;52.378;13.122;2023-07-22T13:39:11;29.20;33.50
42227;DHT22;27892;52.378;13.122;2023-07-22T13:41:36;29.90;33.60
42227;DHT22;27892;52.378;13.122;2023-07-22T13:44:02;30.50;31.90
42227;DHT22;27892;52.378;13.122;2023-07-22T13:46:28;30.60;30.00
42227;DHT22;27892;52.378;13.122;2023-07-22T13:48:53;30.10;30.20
42227;DHT22;27892;52.378;13.122;2023-07-22T13:51:19;29.70;30.90
42227;DHT22;27892;52.378;13.122;2023-07-22T13:53:45;29.10;31.00
42227;DHT22;27892;52.378;13.122;2023-07-22T13:56:11;28.60;32.50
42227;DHT22;27892;52.378;13.122;2023-07-22T13:58:39;28.50;32.80
42227;DHT22;27892;52.378;13.122;2023-07-22T14:01:05;28.40;33.20
42227;DHT22;27892;52.378;13.122;2023-07-22T14:03:30;29.00;34.60
42227;DHT22;27892;52.378;13.122;2023-07-22T14:05:58;29.70;33.30
42227;DHT22;27892;52.378;13.122;2023-07-22T14:08:27;30.00;31.80
42227;DHT22;27892;52.378;13.122;2023-07-22T14:10:53;30.00;31.50
42227;DHT22;27892;52.378;13.122;2023-07-22T14:13:18;30.20;32.10
42227;DHT22;27892;52.378;13.122;2023-07-22T14:15:44;30.80;32.40
42227;DHT22;27892;52.378;13.122;2023-07-22T14:18:10;31.50;30.60
42227;DHT22;27892;52.378;13.122;2023-07-22T14:20:35;31.90;29.40
42227;DHT22;27892;52.378;13.122;2023-07-22T14:23:01;32.00;29.00
42227;DHT22;27892;52.378;13.122;2023-07-22T14:25:29;32.00;29.20
42227;DHT22;27892;52.378;13.122;2023-07-22T14:27:54;31.90;28.40
42227;DHT22;27892;52.378;13.122;2023-07-22T14:30:21;31.50;28.80
42227;DHT22;27892;52.378;13.122;2023-07-22T14:32:47;31.10;29.40
42227;DHT22;27892;52.378;13.122;2023-07-22T14:35:12;30.60;29.60
42227;DHT22;27892;52.378;13.122;2023-07-22T14:37:38;30.20;29.60
42227;DHT22;27892;52.378;13.122;2023-07-22T14:40:04;29.90;29.90
42227;DHT22;27892;52.378;13.122;2023-07-22T14:42:30;29.80;30.20
42227;DHT22;27892;52.378;13.122;2023-07-22T14:44:56;29.70;30.40
42227;DHT22;27892;52.378;13.122;2023-07-22T14:47:22;29.70;30.40
42227;DHT22;27892;52.378;13.122;2023-07-22T14:49:47;29.50;31.40
42227;DHT22;27892;52.378;13.122;2023-07-22T14:52:13;29.30;30.90
42227;DHT22;27892;52.378;13.122;2023-07-22T14:54:39;29.00;31.10
42227;DHT22;27892;52.378;13.122;2023-07-22T14:57:04;28.60;31.30
42227;DHT22;27892;52.378;13.122;2023-07-22T14:59:30;28.40;32.20
42227;DHT22;27892;52.378;13.122;2023-07-22T15:01:56;28.30;32.80
42227;DHT22;27892;52.378;13.122;2023-07-22T15:04:22;28.20;32.60
42227;DHT22;27892;52.378;13.122;2023-07-22T15:06:48;28.10;33.20
42227;DHT22;27892;52.378;13.122;2023-07-22T15:09:13;28.10;33.20
42227;DHT22;27892;52.378;13.122;2023-07-22T15:11:39;28.20;33.60
42227;DHT22;27892;52.378;13.122;2023-07-22T15:14:05;28.30;33.70
42227;DHT22;27892;52.378;13.122;2023-07-22T15:16:31;28.40;33.20
42227;DHT22;27892;52.378;13.122;2023-07-22T15:18:57;28.40;33.40
42227;DHT22;27892;52.378;13.122;2023-07-22T15:21:23;28.40;33.90
42227;DHT22;27892;52.378;13.122;2023-07-22T15:23:49;28.40;33.30
42227;DHT22;27892;52.378;13.122;2023-07-22T15:26:17;28.40;33.00
42227;DHT22;27892;52.378;13.122;2023-07-22T15:28:46;28.50;33.90
42227;DHT22;27892;52.378;13.122;2023-07-22T15:31:12;28.60;33.90
42227;DHT22;27892;52.378;13.122;2023-07-22T15:33:39;28.60;32.50
42227;DHT22;27892;52.378;13.122;2023-07-22T15:36:05;28.60;32.00